Time;durP1;ratioP1;P1;durP2;ratioP2;P2;SDS_P1;SDS_P2;PMS_P1;PMS_P2;Temp;Humidity;BMP_temperature;BMP_pressure;BME280_temperature;BME280_humidity;BME280_pressure;Samples;Min_cycle;Max_cycle;Signal;HPM_P1;HPM_P2
2023/08/07 00:04:08;;;;;;;4.70;1.83;;;26.50;29.30;;;;;;20840419;28;20052;-58
2023/08/07 00:14:09;;;;;;;8.70;2.00;;;26.30;29.70;;;;;;20840407;28;20049;-58
2023/08/07 00:24:09;;;;;;;4.87;1.70;;;26.10;30.20;;;;;;20838385;28;20132;-58
2023/08/07 00:34:10;;;;;;;6.83;2.60;;;25.90;30.50;;;;;;20836421;28;20499;-58
2023/08/07 00:44:11;;;;;;;4.40;2.10;;;25.70;30.90;;;;;;20838593;28;20080;-58
2023/08/07 00:54:15;;;;;;;7.10;2.10;;;25.60;31.20;;;;;;20838503;28;20127;-58
2023/08/07 01:04:16;;;;;;;5.50;1.73;;;25.60;31.30;;;;;;20837694;28;20398;-57
2023/08/07 01:14:31;;;;;;;11.50;2.57;;;25.40;31.50;;;;;;20836484;28;20068;-58
2023/08/07 01:24:33;;;;;;;6.97;1.70;;;25.20;31.90;;;;;;20835635;28;20125;-58
2023/08/07 01:34:35;;;;;;;5.30;1.87;;;25.10;32.10;;;;;;20833262;28;20105;-57
2023/08/07 01:44:37;;;;;;;6.80;1.65;;;25.00;32.30;;;;;;20833665;28;20045;-58
2023/08/07 01:54:38;;;;;;;;;;;24.80;32.60;;;;;;20833319;28;20479;-58
2023/08/07 02:04:38;;;;;;;4.63;1.48;;;24.60;32.90;;;;;;20832368;28;19948;-57
2023/08/07 02:14:39;;;;;;;5.40;1.90;;;24.30;33.40;;;;;;20831636;28;20055;-58
2023/08/07 02:24:40;;;;;;;8.07;2.05;;;24.20;33.50;;;;;;20829720;28;20080;-58
2023/08/07 02:34:40;;;;;;;4.88;1.50;;;24.00;33.80;;;;;;20829028;28;20387;-57
2023/08/07 02:44:41;;;;;;;5.05;1.70;;;23.90;34.00;;;;;;20829645;28;20049;-57
2023/08/07 02:54:42;;;;;;;4.68;1.70;;;24.00;33.90;;;;;;20828570;28;20042;-57
2023/08/07 03:04:43;;;;;;;3.42;1.45;;;23.70;34.20;;;;;;20827557;28;20092;-57
2023/08/07 03:14:43;;;;;;;4.88;2.08;;;23.60;34.40;;;;;;20828223;28;20487;-58
2023/08/07 03:24:48;;;;;;;6.93;2.13;;;23.60;34.40;;;;;;20828462;28;20049;-57
2023/08/07 03:34:48;;;;;;;3.63;1.48;;;23.60;34.30;;;;;;20825896;28;20503;-58
2023/08/07 03:44:49;;;;;;;8.20;1.60;;;23.40;34.70;;;;;;20826051;28;20516;-57
2023/08/07 03:54:50;;;;;;;6.07;1.77;;;23.30;34.70;;;;;;20826677;28;20041;-58
2023/08/07 04:04:50;;;;;;;4.85;1.42;;;23.20;34.80;;;;;;20829034;28;20095;-58
2023/08/07 04:14:51;;;;;;;5.68;1.63;;;23.10;34.10;;;;;;20840616;28;20057;-57
2023/08/07 04:24:52;;;;;;;5.43;1.90;;;22.90;33.30;;;;;;20840095;28;20049;-58
2023/08/07 04:34:53;;;;;;;6.85;1.73;;;22.80;33.00;;;;;;20838002;28;20099;-57
2023/08/07 04:44:54;;;;;;;3.97;1.80;;;23.10;31.60;;;;;;20838725;28;20045;-56
2023/08/07 04:54:54;;;;;;;3.53;1.65;;;22.80;31.40;;;;;;20836600;28;20052;-58
2023/08/07 05:04:55;;;;;;;2.50;1.40;;;22.80;30.40;;;;;;20836922;28;20136;-57
2023/08/07 05:14:56;;;;;;;3.50;1.23;;;22.70;29.70;;;;;;20835675;28;20111;-57
2023/08/07 05:24:56;;;;;;;3.17;1.55;;;22.60;29.20;;;;;;20834244;28;20049;-58
2023/08/07 05:34:57;;;;;;;3.05;1.55;;;22.60;28.30;;;;;;20832683;28;20513;-57
2023/08/07 05:44:59;;;;;;;3.83;1.63;;;22.50;28.20;;;;;;20833207;28;20491;-58
2023/08/07 05:54:59;;;;;;;4.47;2.00;;;22.40;27.80;;;;;;20830396;28;20046;-58
2023/08/07 06:05:00;;;;;;;4.25;1.60;;;22.40;27.60;;;;;;20830641;28;20119;-57
2023/08/07 06:15:01;;;;;;;4.85;1.30;;;22.60;27.00;;;;;;20831922;28;20106;-57
2023/08/07 06:25:01;;;;;;;3.85;1.30;;;22.40;27.10;;;;;;20829748;28;20045;-57
2023/08/07 06:35:04;;;;;;;5.22;2.20;;;22.50;27.00;;;;;;20828113;28;20107;-56
2023/08/07 06:45:06;;;;;;;4.75;1.67;;;22.70;27.00;;;;;;20828124;28;20064;-57
2023/08/07 06:55:07;;;;;;;6.13;1.83;;;23.20;26.30;;;;;;20827744;28;20092;-57
2023/08/07 07:05:08;;;;;;;6.28;1.80;;;23.80;25.30;;;;;;20828535;28;20434;-57
2023/08/07 07:15:09;;;;;;;3.95;1.90;;;24.20;24.80;;;;;;20828625;28;20056;-57
2023/08/07 07:25:10;;;;;;;3.07;1.47;;;24.50;24.20;;;;;;20828168;28;20170;-57
2023/08/07 07:35:10;;;;;;;4.43;1.60;;;24.70;24.00;;;;;;20826095;28;20057;-58
2023/08/07 07:45:11;;;;;;;5.53;2.00;;;25.20;24.00;;;;;;20839678;28;20502;-57
2023/08/07 07:55:13;;;;;;;6.93;2.00;;;25.60;23.30;;;;;;20842201;28;20049;-58
2023/08/07 08:05:15;;;;;;;4.35;1.65;;;25.90;23.30;;;;;;20840621;28;20049;-57
2023/08/07 08:15:16;;;;;;;6.43;2.17;;;26.10;23.70;;;;;;20841126;28;20049;-57
2023/08/07 08:25:19;;;;;;;8.50;2.43;;;26.30;23.70;;;;;;20840119;28;20076;-57
2023/08/07 08:35:20;;;;;;;3.67;1.65;;;26.60;23.80;;;;;;20840560;28;20084;-57
2023/08/07 08:45:22;;;;;;;4.27;1.90;;;27.10;24.20;;;;;;20838755;28;20048;-57
2023/08/07 08:55:23;;;;;;;5.72;1.80;;;27.10;25.50;;;;;;20837202;28;20149;-58
2023/08/07 09:05:24;;;;;;;5.32;1.88;;;27.30;25.50;;;;;;20837818;28;20076;-58
2023/08/07 09:15:25;;;;;;;4.60;1.63;;;27.50;27.00;;;;;;20836544;28;20473;-57
2023/08/07 09:25:28;;;;;;;4.50;2.10;;;27.60;27.60;;;;;;20835519;28;20037;-57
2023/08/07 09:35:34;;;;;;;7.68;1.92;;;27.90;30.10;;;;;;20833607;28;20085;-58
2023/08/07 09:45:36;;;;;;;5.40;1.83;;;28.10;30.40;;;;;;20832853;28;20053;-57
2023/08/07 09:55:37;;;;;;;4.85;1.92;;;28.20;30.20;;;;;;20833254;28;20053;-58
2023/08/07 10:05:38;;;;;;;6.90;2.13;;;28.40;29.90;;;;;;20832518;28;20041;-57
2023/08/07 10:15:40;;;;;;;6.40;2.30;;;28.30;30.30;;;;;;20832212;28;20057;-57
2023/08/07 10:25:45;;;;;;;5.70;2.15;;;28.70;30.80;;;;;;20830681;28;20310;-58
2023/08/07 10:35:48;;;;;;;4.78;2.00;;;28.60;31.00;;;;;;20830427;28;20095;-57
2023/08/07 10:45:50;;;;;;;5.65;1.95;;;28.80;32.00;;;;;;20830076;28;20099;-58
2023/08/07 10:55:50;;;;;;;7.47;2.42;;;29.10;31.30;;;;;;20828948;28;20045;-57
2023/08/07 11:05:51;;;;;;;5.72;2.00;;;29.10;32.90;;;;;;20828143;28;20038;-57
2023/08/07 11:15:52;;;;;;;11.02;2.55;;;29.20;32.50;;;;;;20833314;28;20513;-57
2023/08/07 11:25:54;;;;;;;6.00;1.92;;;29.10;32.50;;;;;;20844653;28;20045;-57
2023/08/07 11:35:55;;;;;;;7.68;2.00;;;29.30;32.70;;;;;;20844209;28;20096;-58
2023/08/07 11:45:58;;;;;;;7.70;1.85;;;29.60;33.00;;;;;;20842830;28;20333;-58
2023/08/07 11:56:00;;;;;;;6.95;2.50;;;29.80;32.40;;;;;;20841814;28;20046;-57
2023/08/07 12:06:03;;;;;;;8.60;2.08;;;30.00;32.10;;;;;;20840034;28;20056;-58
2023/08/07 12:16:04;;;;;;;7.97;1.88;;;30.30;31.50;;;;;;20841253;28;20046;-58
2023/08/07 12:26:06;;;;;;;4.55;2.20;;;30.50;31.20;;;;;;20838751;28;20049;-57
2023/08/07 12:36:08;;;;;;;7.68;2.67;;;30.50;30.90;;;;;;20839022;28;20041;-58
2023/08/07 12:46:08;;;;;;;5.63;1.80;;;30.80;30.60;;;;;;20837704;28;20053;-57
2023/08/07 12:56:09;;;;;;;7.82;2.10;;;30.80;30.40;;;;;;20836213;28;20077;-57
2023/08/07 13:06:11;;;;;;;6.07;2.42;;;31.10;29.10;;;;;;20837012;28;20152;-57
2023/08/07 13:16:12;;;;;;;4.45;1.45;;;31.60;27.10;;;;;;20836644;28;20407;-58
2023/08/07 13:26:13;;;;;;;7.82;2.13;;;31.80;26.20;;;;;;20835406;28;20060;-57
2023/08/07 13:36:13;;;;;;;8.40;2.53;;;32.10;26.70;;;;;;20833346;28;20411;-57
2023/08/07 13:46:14;;;;;;;7.70;2.40;;;32.30;26.10;;;;;;20834146;28;20099;-58
2023/08/07 13:56:15;;;;;;;3.78;1.95;;;32.90;25.30;;;;;;20833476;28;20053;-57
2023/08/07 14:06:16;;;;;;;8.55;2.45;;;32.90;25.30;;;;;;20831611;28;20106;-58
2023/08/07 14:16:16;;;;;;;5.60;1.80;;;33.00;25.60;;;;;;20832057;28;20053;-57
2023/08/07 14:26:18;;;;;;;3.90;1.63;;;33.40;24.70;;;;;;20830058;28;20064;-57
2023/08/07 14:36:19;;;;;;;7.07;3.10;;;33.30;24.90;;;;;;20830420;28;20050;-57
2023/08/07 14:46:20;;;;;;;5.00;1.90;;;33.50;24.30;;;;;;20830392;28;20128;-57
2023/08/07 14:56:21;;;;;;;5.60;2.35;;;33.80;23.80;;;;;;20827261;28;20106;-58
2023/08/07 15:06:22;;;;;;;6.60;2.00;;;34.00;23.50;;;;;;20829440;28;20497;-57
2023/08/07 15:16:23;;;;;;;5.10;1.80;;;34.10;22.30;;;;;;20827325;28;20042;-58
2023/08/07 15:26:24;;;;;;;4.53;1.90;;;34.10;23.50;;;;;;20828459;28;20061;-57
2023/08/07 15:36:24;;;;;;;7.15;1.90;;;34.20;22.60;;;;;;20826835;28;20038;-58
2023/08/07 15:46:25;;;;;;;6.43;1.75;;;34.50;22.10;;;;;;20826389;28;20468;-59
2023/08/07 15:56:26;;;;;;;5.80;2.00;;;34.50;22.10;;;;;;20826152;28;20045;-58
2023/08/07 16:06:27;;;;;;;7.22;1.90;;;34.40;22.60;;;;;;20838173;28;20290;-58
2023/08/07 16:16:28;;;;;;;5.00;2.10;;;34.60;22.60;;;;;;20841172;28;20088;-58
2023/08/07 16:26:28;;;;;;;4.88;1.80;;;34.60;22.30;;;;;;20838855;28;20097;-58
2023/08/07 16:36:29;;;;;;;5.47;1.65;;;34.60;21.90;;;;;;20839208;28;20383;-59
2023/08/07 16:46:30;;;;;;;6.07;2.03;;;34.60;21.90;;;;;;20838985;28;20131;-58
2023/08/07 16:56:31;;;;;;;4.03;1.95;;;34.80;21.40;;;;;;20838134;28;20077;-58
2023/08/07 17:06:32;;;;;;;8.73;2.72;;;34.80;21.40;;;;;;20837577;28;20119;-59
2023/08/07 17:16:32;;;;;;;3.03;1.35;;;34.80;21.60;;;;;;20835976;28;20092;-59
2023/08/07 17:26:33;;;;;;;4.85;2.13;;;34.70;21.30;;;;;;20835875;28;20053;-57
2023/08/07 17:36:34;;;;;;;5.60;1.60;;;34.60;21.50;;;;;;20835362;28;20048;-57
2023/08/07 17:46:35;;;;;;;6.38;1.80;;;34.50;21.90;;;;;;20834743;28;20049;-58
2023/08/07 17:56:36;;;;;;;6.82;2.30;;;34.60;21.90;;;;;;20832969;28;20053;-58
2023/08/07 18:06:37;;;;;;;4.70;1.80;;;34.40;21.60;;;;;;20831618;28;20137;-58
2023/08/07 18:16:37;;;;;;;4.38;1.60;;;34.40;21.70;;;;;;20831188;28;20407;-58
2023/08/07 18:26:39;;;;;;;4.97;2.30;;;34.20;21.90;;;;;;20829417;28;20503;-58
2023/08/07 18:36:40;;;;;;;6.13;2.33;;;34.10;21.70;;;;;;20831091;28;20045;-59
2023/08/07 18:46:42;;;;;;;5.95;3.13;;;33.90;22.10;;;;;;20830679;28;20159;-59
2023/08/07 18:56:42;;;;;;;7.38;3.30;;;33.70;22.70;;;;;;20830209;28;20494;-58
2023/08/07 19:06:43;;;;;;;9.60;3.92;;;33.60;23.00;;;;;;20827837;28;20037;-59
2023/08/07 19:16:45;;;;;;;8.65;4.28;;;33.40;23.80;;;;;;20828321;28;20054;-58
2023/08/07 19:26:46;;;;;;;13.68;6.30;;;33.10;24.00;;;;;;20827969;28;20564;-59
2023/08/07 19:36:50;;;;;;;15.57;6.72;;;32.90;24.70;;;;;;20833706;28;20455;-59
2023/08/07 19:46:51;;;;;;;14.40;7.55;;;32.70;25.00;;;;;;20843097;28;20056;-58
2023/08/07 19:56:52;;;;;;;15.75;9.02;;;32.60;25.60;;;;;;20842845;28;20120;-58
2023/08/07 20:06:53;;;;;;;12.63;8.25;;;32.30;26.10;;;;;;20843029;28;20076;-59
2023/08/07 20:16:54;;;;;;;16.00;8.25;;;32.20;26.30;;;;;;20840431;28;20128;-59
2023/08/07 20:26:55;;;;;;;11.25;6.07;;;32.00;26.60;;;;;;20841512;28;20503;-57
2023/08/07 20:36:56;;;;;;;12.05;5.20;;;31.70;26.60;;;;;;20839276;28;20050;-58
2023/08/07 20:46:57;;;;;;;17.05;9.90;;;31.60;26.50;;;;;;20837247;28;20463;-58
2023/08/07 20:56:58;;;;;;;14.98;8.68;;;31.30;27.00;;;;;;20838968;28;20487;-58
2023/08/07 21:06:58;;;;;;;16.00;8.35;;;31.20;27.80;;;;;;20838471;28;20121;-58
2023/08/07 21:16:59;;;;;;;16.02;7.10;;;31.10;28.00;;;;;;20837947;28;20127;-58
2023/08/07 21:27:00;;;;;;;12.02;5.65;;;30.70;29.40;;;;;;20836857;28;20054;-57
2023/08/07 21:37:00;;;;;;;14.18;3.55;;;30.60;29.80;;;;;;20836312;28;20041;-58
2023/08/07 21:47:01;;;;;;;8.73;3.28;;;30.30;29.80;;;;;;20835770;28;20125;-58
2023/08/07 21:57:02;;;;;;;7.30;3.85;;;30.00;29.70;;;;;;20834459;28;20049;-57
2023/08/07 22:07:03;;;;;;;9.35;3.88;;;29.80;29.60;;;;;;20833944;28;20049;-59
2023/08/07 22:17:04;;;;;;;8.82;3.00;;;29.80;29.60;;;;;;20833085;28;20052;-57
2023/08/07 22:27:05;;;;;;;5.00;2.70;;;29.50;29.90;;;;;;20831111;28;20081;-59
2023/08/07 22:37:06;;;;;;;8.07;2.70;;;29.20;30.30;;;;;;20830583;28;20123;-58
2023/08/07 22:47:07;;;;;;;5.85;2.50;;;29.00;30.20;;;;;;20831305;28;20499;-58
2023/08/07 22:57:07;;;;;;;7.95;3.50;;;28.90;30.20;;;;;;20830405;28;20119;-57
2023/08/07 23:07:08;;;;;;;6.88;2.95;;;28.80;30.50;;;;;;20829048;28;20410;-57
2023/08/07 23:17:09;;;;;;;10.05;3.15;;;28.70;30.80;;;;;;20845298;28;20099;-59
2023/08/07 23:27:10;;;;;;;5.47;2.97;;;28.60;30.90;;;;;;20846076;28;20108;-57
2023/08/07 23:37:11;;;;;;;8.90;3.13;;;28.40;30.90;;;;;;20844219;28;20049;-57
2023/08/07 23:47:12;;;;;;;8.30;3.60;;;28.30;31.30;;;;;;20845094;28;20048;-58
2023/08/07 23:57:12;;;;;;;;;;;28.20;31.30;;;;;;20844915;28;20049;-58
